CES5380 ZJSY-ZSPD
Flight info
| Callsign | CES5380 |
|---|---|
| Flight time | N/A |
| Altitude | 35100 |
| Route | ZJSY DCT PORAP W222 SAMAS G221 BIGRO R200 ZUH R473 POU A599 ELNEX G204 MULOV V73 SUPAR B221 AND DCT ZSPD |
| Aircraft | B77W/H-SDE1E2E3FGHIJ2J3J4J5M1RWXYZ/LB1D1 |
Departure
| Time | N/A |
|---|---|
| Airport | Sanya Phoenix International Airport (ZJSY) |
Arrival
| Time | 2026-05-04 11:10 |
|---|---|
| Airport | Shanghai Pudong International Airport (ZSPD) |
| Time | Latitude | Longitude | Altitude | Speed | Heading |
|---|---|---|---|---|---|
| 2026-05-04 09:51 | 24.94491 | 114.24053 | 37177 ft | 516 kts | 3° |
| 2026-05-04 09:51 | 25.01606 | 114.25606 | 37171 ft | 516 kts | 2° |
| 2026-05-04 09:52 | 25.08553 | 114.27675 | 37171 ft | 531 kts | 15° |
| 2026-05-04 09:52 | 25.15026 | 114.31875 | 37185 ft | 547 kts | 30° |
| 2026-05-04 09:53 | 25.21113 | 114.36996 | 37171 ft | 550 kts | 31° |
| 2026-05-04 09:53 | 25.27189 | 114.42127 | 37172 ft | 552 kts | 31° |
| 2026-05-04 09:54 | 25.33289 | 114.47273 | 37165 ft | 551 kts | 31° |
| 2026-05-04 09:54 | 25.39389 | 114.52419 | 37162 ft | 551 kts | 30° |
| 2026-05-04 09:55 | 25.45480 | 114.57558 | 37167 ft | 552 kts | 30° |
| 2026-05-04 09:55 | 25.51641 | 114.62759 | 37164 ft | 558 kts | 30° |
| 2026-05-04 09:56 | 25.57868 | 114.68021 | 37153 ft | 565 kts | 31° |
| 2026-05-04 09:56 | 25.64102 | 114.73299 | 37141 ft | 567 kts | 31° |
| 2026-05-04 09:57 | 25.70370 | 114.78613 | 37147 ft | 566 kts | 31° |
| 2026-05-04 09:57 | 25.76536 | 114.83846 | 37162 ft | 568 kts | 31° |
| 2026-05-04 09:58 | 25.82600 | 114.89603 | 37173 ft | 575 kts | 40° |
| 2026-05-04 09:58 | 25.88100 | 114.96079 | 37184 ft | 579 kts | 41° |
| 2026-05-04 10:00 | 26.10101 | 115.22252 | 37174 ft | 582 kts | 41° |
| 2026-05-04 10:04 | 26.48720 | 115.68536 | 37165 ft | 584 kts | 41° |
| 2026-05-04 10:04 | 26.54254 | 115.75209 | 37163 ft | 584 kts | 41° |
| 2026-05-04 10:05 | 26.59777 | 115.81879 | 37170 ft | 584 kts | 41° |
| 2026-05-04 10:05 | 26.65220 | 115.88460 | 37173 ft | 587 kts | 41° |
| 2026-05-04 10:06 | 26.70717 | 115.95119 | 37175 ft | 585 kts | 41° |
| 2026-05-04 10:06 | 26.76256 | 116.01838 | 37178 ft | 586 kts | 41° |
| 2026-05-04 10:08 | 26.95653 | 116.25410 | 37191 ft | 587 kts | 41° |
| 2026-05-04 10:08 | 27.01198 | 116.32089 | 37205 ft | 587 kts | 41° |
| 2026-05-04 10:09 | 27.06801 | 116.38849 | 37199 ft | 587 kts | 41° |
| 2026-05-04 10:09 | 27.12336 | 116.45540 | 37195 ft | 588 kts | 41° |
| 2026-05-04 10:10 | 27.17927 | 116.52309 | 37184 ft | 591 kts | 41° |
| 2026-05-04 10:10 | 27.23552 | 116.59058 | 37193 ft | 590 kts | 40° |
| 2026-05-04 10:11 | 27.29157 | 116.65562 | 37191 ft | 589 kts | 40° |
| 2026-05-04 10:11 | 27.34898 | 116.72235 | 37169 ft | 591 kts | 40° |
| 2026-05-04 10:12 | 27.40592 | 116.78873 | 37170 ft | 590 kts | 40° |
| 2026-05-04 10:12 | 27.46311 | 116.85554 | 37177 ft | 591 kts | 40° |
| 2026-05-04 10:13 | 27.52010 | 116.92226 | 37187 ft | 591 kts | 40° |
| 2026-05-04 10:13 | 27.57737 | 116.98857 | 37190 ft | 590 kts | 39° |
| 2026-05-04 10:14 | 27.63483 | 117.05494 | 37189 ft | 592 kts | 39° |
| 2026-05-04 10:16 | 27.86557 | 117.32288 | 37205 ft | 593 kts | 39° |
| 2026-05-04 10:16 | 27.92293 | 117.38978 | 37199 ft | 594 kts | 39° |
| 2026-05-04 10:17 | 27.98074 | 117.45731 | 37193 ft | 594 kts | 39° |
| 2026-05-04 10:19 | 28.21172 | 117.72819 | 37173 ft | 595 kts | 40° |
| 2026-05-04 10:19 | 28.26934 | 117.79602 | 37167 ft | 597 kts | 40° |
| 2026-05-04 10:20 | 28.32605 | 117.86291 | 37173 ft | 596 kts | 39° |
| 2026-05-04 10:20 | 28.38367 | 117.93095 | 37184 ft | 599 kts | 40° |
| 2026-05-04 10:21 | 28.44115 | 117.99948 | 37188 ft | 599 kts | 41° |
| 2026-05-04 10:21 | 28.49760 | 118.06902 | 37193 ft | 600 kts | 41° |
| 2026-05-04 10:22 | 28.58238 | 118.17365 | 37201 ft | 601 kts | 41° |
| 2026-05-04 10:23 | 28.63841 | 118.24294 | 37193 ft | 586 kts | 41° |
| 2026-05-04 10:23 | 28.66556 | 118.27659 | 37190 ft | 572 kts | 41° |
| 2026-05-04 10:25 | 28.85253 | 118.50836 | 37194 ft | 568 kts | 40° |
| 2026-05-04 10:25 | 28.90593 | 118.57481 | 37194 ft | 566 kts | 40° |
| 2026-05-04 10:26 | 28.95920 | 118.64119 | 37191 ft | 571 kts | 40° |
| 2026-05-04 10:26 | 29.01268 | 118.70798 | 37163 ft | 567 kts | 41° |
| 2026-05-04 10:27 | 29.06609 | 118.77476 | 37166 ft | 567 kts | 41° |
| 2026-05-04 10:27 | 29.11968 | 118.84188 | 37172 ft | 569 kts | 41° |
| 2026-05-04 10:28 | 29.17313 | 118.90895 | 37174 ft | 569 kts | 41° |
| 2026-05-04 10:28 | 29.22570 | 118.97503 | 37181 ft | 567 kts | 41° |
| 2026-05-04 10:29 | 29.27886 | 119.04197 | 37184 ft | 566 kts | 41° |
| 2026-05-04 10:29 | 29.33195 | 119.10899 | 37178 ft | 568 kts | 41° |
| 2026-05-04 10:30 | 29.38519 | 119.17636 | 37190 ft | 568 kts | 41° |
| 2026-05-04 10:30 | 29.43804 | 119.24344 | 37190 ft | 569 kts | 41° |
| 2026-05-04 10:31 | 29.49101 | 119.31081 | 37200 ft | 566 kts | 41° |
| 2026-05-04 10:32 | 29.62719 | 119.58414 | 37220 ft | 586 kts | 85° |
| 2026-05-04 10:33 | 29.62783 | 119.67783 | 37204 ft | 584 kts | 94° |
| 2026-05-04 10:33 | 29.62553 | 119.77114 | 37210 ft | 584 kts | 94° |
| 2026-05-04 10:34 | 29.62334 | 119.86398 | 37200 ft | 581 kts | 95° |
| 2026-05-04 10:34 | 29.62116 | 119.95701 | 37195 ft | 585 kts | 94° |
| 2026-05-04 10:35 | 29.61898 | 120.04985 | 37195 ft | 584 kts | 94° |
| 2026-05-04 10:35 | 29.61737 | 120.14346 | 37196 ft | 586 kts | 89° |
| 2026-05-04 10:36 | 29.63074 | 120.23578 | 37206 ft | 587 kts | 71° |
| 2026-05-04 10:36 | 29.66362 | 120.32046 | 37207 ft | 580 kts | 54° |
| 2026-05-04 10:37 | 29.71138 | 120.39501 | 37208 ft | 574 kts | 46° |
| 2026-05-04 10:37 | 29.76024 | 120.46654 | 36913 ft | 566 kts | 46° |
| 2026-05-04 10:39 | 29.91117 | 120.69038 | 30348 ft | 603 kts | 48° |
| 2026-05-04 10:39 | 29.93662 | 120.72849 | 29709 ft | 594 kts | 49° |
| 2026-05-04 10:39 | 29.96187 | 120.76633 | 29085 ft | 587 kts | 49° |
| 2026-05-04 10:40 | 29.98644 | 120.80320 | 28408 ft | 581 kts | 49° |
| 2026-05-04 10:40 | 30.01091 | 120.83994 | 27691 ft | 576 kts | 49° |
| 2026-05-04 10:40 | 30.03527 | 120.87675 | 26979 ft | 571 kts | 50° |
| 2026-05-04 10:40 | 30.05849 | 120.91284 | 26261 ft | 566 kts | 50° |
| 2026-05-04 10:41 | 30.08165 | 120.94908 | 25541 ft | 560 kts | 50° |
| 2026-05-04 10:41 | 30.10481 | 120.98528 | 25076 ft | 548 kts | 50° |
| 2026-05-04 10:41 | 30.12738 | 121.02039 | 24359 ft | 543 kts | 50° |
| 2026-05-04 10:41 | 30.14964 | 121.05498 | 23548 ft | 539 kts | 50° |
| 2026-05-04 10:42 | 30.17176 | 121.08942 | 23246 ft | 524 kts | 50° |
| 2026-05-04 10:42 | 30.19323 | 121.12287 | 23086 ft | 506 kts | 50° |
| 2026-05-04 10:42 | 30.21387 | 121.15505 | 22972 ft | 489 kts | 50° |
| 2026-05-04 10:42 | 30.23392 | 121.18632 | 22686 ft | 478 kts | 50° |
| 2026-05-04 10:43 | 30.25350 | 121.21685 | 22208 ft | 472 kts | 50° |
| 2026-05-04 10:44 | 30.37534 | 121.42976 | 18774 ft | 434 kts | 53° |
| 2026-05-04 10:45 | 30.39190 | 121.45898 | 18329 ft | 428 kts | 53° |
| 2026-05-04 10:45 | 30.40796 | 121.48734 | 17879 ft | 421 kts | 53° |
| 2026-05-04 10:45 | 30.42398 | 121.51561 | 17377 ft | 416 kts | 53° |
| 2026-05-04 10:45 | 30.43959 | 121.54318 | 16856 ft | 412 kts | 53° |
| 2026-05-04 10:46 | 30.45521 | 121.57078 | 16350 ft | 407 kts | 53° |
| 2026-05-04 10:46 | 30.47065 | 121.59805 | 15851 ft | 403 kts | 53° |
| 2026-05-04 10:46 | 30.48589 | 121.62502 | 15363 ft | 396 kts | 54° |
| 2026-05-04 10:46 | 30.50055 | 121.65097 | 14945 ft | 378 kts | 54° |
| 2026-05-04 10:47 | 30.51469 | 121.67604 | 14575 ft | 360 kts | 54° |
| 2026-05-04 10:47 | 30.52799 | 121.69962 | 14266 ft | 343 kts | 53° |
| 2026-05-04 10:47 | 30.54068 | 121.72212 | 14015 ft | 326 kts | 53° |
| 2026-05-04 10:47 | 30.55282 | 121.74364 | 13899 ft | 311 kts | 53° |
| 2026-05-04 10:49 | 30.67575 | 121.80357 | 11192 ft | 270 kts | 10° |
| 2026-05-04 10:49 | 30.69405 | 121.80855 | 10789 ft | 267 kts | 10° |
| 2026-05-04 10:50 | 30.71210 | 121.81346 | 10371 ft | 265 kts | 11° |
| 2026-05-04 10:51 | 30.83528 | 121.84701 | 8231 ft | 257 kts | 11° |
| 2026-05-04 10:52 | 30.85283 | 121.85180 | 8132 ft | 257 kts | 11° |
| 2026-05-04 10:52 | 30.87030 | 121.85657 | 8027 ft | 257 kts | 11° |
| 2026-05-04 10:52 | 30.88797 | 121.86139 | 7916 ft | 257 kts | 11° |
| 2026-05-04 10:54 | 30.99443 | 121.81043 | 7162 ft | 251 kts | 319° |
| 2026-05-04 10:54 | 31.00772 | 121.79709 | 7067 ft | 251 kts | 319° |
| 2026-05-04 10:56 | 31.09891 | 121.70372 | 6100 ft | 248 kts | 318° |
| 2026-05-04 10:56 | 31.11192 | 121.69031 | 5963 ft | 249 kts | 318° |
| 2026-05-04 10:56 | 31.12499 | 121.67706 | 5819 ft | 248 kts | 323° |
| 2026-05-04 10:57 | 31.14031 | 121.66818 | 5675 ft | 249 kts | 339° |
| 2026-05-04 10:57 | 31.15686 | 121.66188 | 5576 ft | 251 kts | 341° |
| 2026-05-04 10:57 | 31.17369 | 121.65582 | 5469 ft | 251 kts | 342° |
| 2026-05-04 10:57 | 31.19044 | 121.64980 | 5360 ft | 252 kts | 341° |
| 2026-05-04 10:58 | 31.20714 | 121.64375 | 5249 ft | 252 kts | 341° |
| 2026-05-04 10:58 | 31.22400 | 121.63765 | 5138 ft | 251 kts | 341° |
| 2026-05-04 10:58 | 31.24080 | 121.63156 | 5025 ft | 252 kts | 341° |
| 2026-05-04 10:58 | 31.25760 | 121.62547 | 4905 ft | 251 kts | 341° |
| 2026-05-04 10:59 | 31.27411 | 121.61919 | 4791 ft | 251 kts | 340° |
| 2026-05-04 10:59 | 31.29092 | 121.61275 | 4680 ft | 251 kts | 341° |
| 2026-05-04 10:59 | 31.30747 | 121.60644 | 4560 ft | 251 kts | 341° |
| 2026-05-04 10:59 | 31.32427 | 121.60004 | 4455 ft | 252 kts | 341° |
| 2026-05-04 11:00 | 31.34095 | 121.59370 | 4343 ft | 249 kts | 341° |
| 2026-05-04 11:01 | 31.41412 | 121.64471 | 3606 ft | 227 kts | 78° |
| 2026-05-04 11:02 | 31.41577 | 121.66321 | 3483 ft | 226 kts | 101° |
| 2026-05-04 11:02 | 31.40951 | 121.67987 | 3363 ft | 224 kts | 133° |
| 2026-05-04 11:05 | 31.24038 | 121.75121 | 1776 ft | 147 kts | 161° |
| 2026-05-04 11:06 | 31.23062 | 121.75488 | 1582 ft | 145 kts | 161° |
| 2026-05-04 11:06 | 31.22109 | 121.75848 | 1394 ft | 144 kts | 161° |
| 2026-05-04 11:06 | 31.21133 | 121.76215 | 1201 ft | 145 kts | 161° |
| 2026-05-04 11:06 | 31.20173 | 121.76575 | 1006 ft | 145 kts | 160° |
| 2026-05-04 11:08 | 31.13953 | 121.78920 | 27 ft | 62 kts | 163° |
| 2026-05-04 11:10 | 31.13546 | 121.79273 | 27 ft | 3 kts | 342° |
| 2026-05-04 11:12 | 31.13633 | 121.79411 | 27 ft | 12 kts | 71° |
| 2026-05-04 11:12 | 31.13661 | 121.79511 | 26 ft | 12 kts | 72° |
| 2026-05-04 11:12 | 31.13687 | 121.79604 | 27 ft | 11 kts | 73° |
| 2026-05-04 11:12 | 31.13711 | 121.79694 | 27 ft | 11 kts | 72° |
| 2026-05-04 11:13 | 31.13737 | 121.79783 | 27 ft | 11 kts | 71° |
| 2026-05-04 11:13 | 31.13762 | 121.79872 | 27 ft | 11 kts | 72° |
| 2026-05-04 11:13 | 31.13787 | 121.79961 | 26 ft | 11 kts | 72° |
| 2026-05-04 11:13 | 31.13829 | 121.80038 | 27 ft | 11 kts | 50° |
| 2026-05-04 11:14 | 31.13842 | 121.80064 | 26 ft | 11 kts | 67° |
| 2026-05-04 11:16 | 31.13858 | 121.80122 | 26 ft | 0 kts | 72° |